Time;durP1;ratioP1;P1;durP2;ratioP2;P2;SDS_P1;SDS_P2;PMS_P1;PMS_P2;Temp;Humidity;BMP_temperature;BMP_pressure;BME280_temperature;BME280_humidity;BME280_pressure;Samples;Min_cycle;Max_cycle;Signal;HPM_P1;HPM_P2
2021/03/11 00:01:32;;;;;;;2.38;1.35;;;;;;;7.76;100.00;96790.94;5063554;28;20048;-87
2021/03/11 00:04:37;;;;;;;9.18;0.70;;;;;;;7.60;100.00;96790.72;5063756;28;20048;-90
2021/03/11 00:07:41;;;;;;;0.40;0.32;;;;;;;7.50;100.00;96784.09;5064022;28;20520;-89
2021/03/11 00:10:45;;;;;;;0.20;0.20;;;;;;;7.42;100.00;96780.47;5064242;28;20055;-88
2021/03/11 00:13:48;;;;;;;10.20;0.95;;;;;;;7.35;100.00;96769.25;5064390;28;20508;-89
2021/03/11 00:16:52;;;;;;;20.20;1.17;;;;;;;7.32;100.00;96764.78;5075976;28;20060;-89
2021/03/11 00:19:55;;;;;;;1.48;0.40;;;;;;;7.26;100.00;96736.44;5063862;28;20492;-88
2021/03/11 00:22:59;;;;;;;14.63;2.72;;;;;;;7.21;100.00;96734.53;5063618;28;20067;-89
2021/03/11 00:26:03;;;;;;;5.15;0.80;;;;;;;7.17;100.00;96709.91;5075719;28;20051;-89
2021/03/11 00:29:07;;;;;;;9.60;0.63;;;;;;;7.11;100.00;96700.22;5069061;28;20048;-87
2021/03/11 00:32:10;;;;;;;2.45;0.75;;;;;;;7.11;100.00;96712.03;5072558;28;20063;-89
2021/03/11 00:35:14;;;;;;;7.25;1.02;;;;;;;7.11;100.00;96700.22;5082215;28;20052;-88
2021/03/11 00:38:18;;;;;;;0.65;0.65;;;;;;;7.07;100.00;96689.47;5068763;28;20051;-87
2021/03/11 00:41:22;;;;;;;8.13;1.80;;;;;;;7.09;100.00;96675.84;5065719;28;20401;-88
2021/03/11 00:44:25;;;;;;;13.95;1.40;;;;;;;7.09;100.00;96653.72;5065868;28;20047;-87
2021/03/11 00:47:29;;;;;;;10.68;2.22;;;;;;;7.11;100.00;96651.16;5078803;28;20059;-87
2021/03/11 00:50:32;;;;;;;13.00;1.50;;;;;;;7.19;100.00;96646.47;5062600;28;20059;-88
2021/03/11 00:53:35;;;;;;;10.30;1.58;;;;;;;7.18;100.00;96630.41;5074414;28;20057;-88
2021/03/11 00:56:39;;;;;;;7.45;0.65;;;;;;;7.22;100.00;96637.13;5074917;28;20067;-87
2021/03/11 00:59:42;;;;;;;5.15;1.25;;;;;;;7.23;100.00;96624.78;5063125;28;20043;-88
2021/03/11 01:02:46;;;;;;;1.27;1.17;;;;;;;7.32;100.00;96637.47;5062491;28;20055;-87
2021/03/11 01:05:49;;;;;;;10.18;1.48;;;;;;;7.50;100.00;96611.69;5062208;28;20048;-88
2021/03/11 01:08:53;;;;;;;14.38;1.10;;;;;;;7.52;100.00;96623.72;5062581;28;20048;-88
2021/03/11 01:11:56;;;;;;;5.78;1.00;;;;;;;7.68;100.00;96601.75;5062453;28;20047;-88
2021/03/11 01:14:59;;;;;;;21.35;1.45;;;;;;;7.72;100.00;96602.19;5062097;28;20496;-86
2021/03/11 01:35:20;;;;;;;1.23;0.60;;;;;;;7.56;100.00;96574.31;5090455;27;20692;-78
2021/03/11 01:38:24;;;;;;;5.05;1.05;;;;;;;7.61;100.00;96587.28;5091026;28;20389;-78
2021/03/11 01:41:27;;;;;;;1.13;0.55;;;;;;;7.62;100.00;96594.31;5090134;28;20181;-79
2021/03/11 01:44:31;;;;;;;2.75;0.68;;;;;;;7.61;100.00;96572.69;5089945;28;20409;-75
2021/03/11 01:47:35;;;;;;;4.85;1.52;;;;;;;7.51;100.00;96572.38;5071910;27;20064;-78
2021/03/11 01:50:39;;;;;;;6.35;0.57;;;;;;;7.47;100.00;96571.25;5046753;28;20068;-78
2021/03/11 01:53:43;;;;;;;4.55;1.45;;;;;;;7.43;100.00;96577.09;5038293;28;20060;-80
2021/03/11 01:56:47;;;;;;;3.30;1.15;;;;;;;7.41;100.00;96576.88;5039176;28;20056;-80
2021/03/11 01:59:51;;;;;;;7.00;1.50;;;;;;;7.40;100.00;96592.00;5039748;28;20064;-80
2021/03/11 02:02:55;;;;;;;5.82;0.85;;;;;;;7.27;100.00;96602.34;5040199;28;20060;-80
2021/03/11 02:05:58;;;;;;;4.57;1.45;;;;;;;7.00;100.00;96554.53;5040409;28;20065;-81
2021/03/11 02:09:04;;;;;;;14.07;0.85;;;;;;;6.70;100.00;96556.84;5042630;28;20418;-82
2021/03/11 02:12:22;;;;;;;21.13;1.60;;;;;;;6.49;100.00;96544.91;5046888;28;20056;-81
2021/03/11 02:15:31;;;;;;;1.20;0.82;;;;;;;6.40;100.00;96556.34;5027605;28;20419;-81
2021/03/11 02:18:43;;;;;;;0.15;0.15;;;;;;;6.41;100.00;96524.69;5025789;28;20065;-80
2021/03/11 02:21:57;;;;;;;3.72;0.57;;;;;;;6.44;100.00;96529.91;5005976;28;20522;-80
2021/03/11 02:25:04;;;;;;;5.50;1.25;;;;;;;6.48;100.00;96515.75;5005905;28;20539;-81
2021/03/11 02:28:35;;;;;;;5.55;0.63;;;;;;;6.59;100.00;96488.66;5006548;28;20068;-80
2021/03/11 02:31:40;;;;;;;12.10;2.13;;;;;;;6.63;100.00;96480.81;5005843;28;20061;-80
2021/03/11 02:34:54;;;;;;;0.35;0.30;;;;;;;6.75;100.00;96475.81;5000613;28;20105;-80
2021/03/11 02:37:59;;;;;;;5.03;1.05;;;;;;;6.80;100.00;96459.09;4993289;28;20065;-80
2021/03/11 02:41:04;;;;;;;1.60;0.57;;;;;;;6.88;100.00;96481.34;4992387;28;20065;-80
2021/03/11 02:44:10;;;;;;;1.88;0.52;;;;;;;6.94;100.00;96465.38;4992971;28;20069;-81
2021/03/11 02:47:13;;;;;;;5.28;1.05;;;;;;;6.99;100.00;96450.72;4993209;28;20081;-80
2021/03/11 02:50:18;;;;;;;9.55;1.30;;;;;;;7.00;100.00;96449.41;4993172;28;20062;-80
2021/03/11 02:53:22;;;;;;;10.52;1.35;;;;;;;7.02;100.00;96444.09;4992449;28;20069;-80
2021/03/11 02:56:26;;;;;;;11.57;1.42;;;;;;;7.00;100.00;96429.31;4992941;28;20736;-81
2021/03/11 02:59:30;;;;;;;5.18;0.68;;;;;;;7.06;100.00;96416.84;4993064;28;20061;-80
2021/03/11 03:02:35;;;;;;;8.65;1.38;;;;;;;7.09;100.00;96418.53;4993164;28;20077;-80
2021/03/11 03:05:40;;;;;;;6.07;0.85;;;;;;;7.10;100.00;96420.03;4992979;28;20066;-80
2021/03/11 03:08:45;;;;;;;5.47;0.75;;;;;;;7.12;100.00;96409.19;4992183;28;20081;-80
2021/03/11 03:11:50;;;;;;;2.33;0.82;;;;;;;7.11;100.00;96395.88;4992342;28;20053;-81
2021/03/11 03:14:54;;;;;;;22.10;1.50;;;;;;;7.06;100.00;96388.44;4991684;28;20538;-82
2021/03/11 03:17:58;;;;;;;11.27;1.20;;;;;;;7.05;100.00;96392.47;4992686;28;20053;-82
2021/03/11 03:21:10;;;;;;;9.63;0.70;;;;;;;7.04;100.00;96377.91;5008649;28;20069;-82
2021/03/11 03:24:18;;;;;;;2.28;0.80;;;;;;;7.02;100.00;96377.69;5011871;28;20068;-83
2021/03/11 03:27:22;;;;;;;13.10;0.57;;;;;;;6.98;100.00;96348.88;5011577;28;20061;-85
2021/03/11 03:30:26;;;;;;;0.52;0.47;;;;;;;6.99;100.00;96367.72;5011862;28;20061;-82
2021/03/11 03:33:29;;;;;;;11.25;1.35;;;;;;;7.03;100.00;96351.53;5011871;28;20056;-83
2021/03/11 03:36:33;;;;;;;6.35;1.35;;;;;;;7.07;100.00;96346.41;5010873;28;20065;-82
2021/03/11 03:39:37;;;;;;;4.30;1.05;;;;;;;7.09;100.00;96349.38;5012038;28;20061;-83
2021/03/11 03:42:46;;;;;;;1.83;0.63;;;;;;;7.09;100.00;96338.31;5011802;28;20637;-83
2021/03/11 03:45:56;;;;;;;7.72;0.85;;;;;;;7.10;100.00;96323.22;5010099;28;20061;-82
2021/03/11 03:49:04;;;;;;;0.38;0.38;;;;;;;7.08;100.00;96303.63;5010726;28;20055;-83
2021/03/11 03:52:09;;;;;;;0.30;0.30;;;;;;;7.08;100.00;96295.31;5009948;28;20060;-82
2021/03/11 03:55:14;;;;;;;0.13;0.13;;;;;;;7.13;100.00;96288.91;5009890;28;20061;-83
2021/03/11 03:58:18;;;;;;;1.02;0.98;;;;;;;7.13;100.00;96271.56;5010269;28;20057;-83
2021/03/11 04:01:27;;;;;;;4.00;1.17;;;;;;;7.17;100.00;96278.25;5009867;28;20060;-82
2021/03/11 04:04:37;;;;;;;4.53;1.50;;;;;;;7.15;100.00;96264.22;5010340;28;20117;-84
2021/03/11 04:07:41;;;;;;;0.20;0.10;;;;;;;7.16;100.00;96248.38;5010420;28;20419;-83
2021/03/11 04:10:45;;;;;;;4.65;0.50;;;;;;;7.16;100.00;96254.66;5010015;28;20423;-82
2021/03/11 04:13:51;;;;;;;2.28;0.45;;;;;;;7.15;100.00;96261.44;5010051;28;20424;-82
2021/03/11 04:16:55;;;;;;;5.38;1.05;;;;;;;7.16;100.00;96249.13;5010950;28;20053;-83
2021/03/11 04:20:01;;;;;;;3.97;0.52;;;;;;;7.12;100.00;96232.13;5011090;28;20061;-82
2021/03/11 04:23:06;;;;;;;18.35;1.02;;;;;;;7.18;100.00;96220.91;5010728;28;20061;-82
2021/03/11 04:26:10;;;;;;;3.38;0.57;;;;;;;7.19;100.00;96206.50;5010799;28;20415;-82
2021/03/11 04:29:14;;;;;;;4.20;0.38;;;;;;;7.22;100.00;96224.06;5010016;28;20061;-82
2021/03/11 04:32:18;;;;;;;0.30;0.30;;;;;;;7.23;100.00;96215.25;5009711;28;20077;-83
2021/03/11 04:35:22;;;;;;;3.70;0.73;;;;;;;7.19;100.00;96223.13;5010056;28;20065;-82
2021/03/11 04:38:26;;;;;;;1.65;0.43;;;;;;;7.15;100.00;96231.03;5009583;28;20415;-82
2021/03/11 04:41:30;;;;;;;1.73;0.22;;;;;;;7.12;100.00;96204.44;5021165;28;20053;-82
2021/03/11 04:44:34;;;;;;;1.75;0.85;;;;;;;7.14;100.00;96218.47;5009607;28;20068;-78
2021/03/11 04:47:39;;;;;;;7.03;0.80;;;;;;;7.15;100.00;96224.72;5010827;28;20068;-75
2021/03/11 04:50:45;;;;;;;2.30;0.77;;;;;;;7.21;100.00;96217.06;5010707;28;20057;-76
2021/03/11 04:53:53;;;;;;;0.22;0.20;;;;;;;7.22;100.00;96202.69;5009128;28;20061;-75
2021/03/11 04:56:56;;;;;;;4.55;0.32;;;;;;;7.19;100.00;96216.88;5010363;28;20065;-75
2021/03/11 05:00:01;;;;;;;23.15;1.35;;;;;;;7.15;100.00;96219.94;5010919;28;20065;-77
2021/03/11 05:03:10;;;;;;;0.35;0.20;;;;;;;7.14;100.00;96204.66;5010803;28;20085;-78
2021/03/11 05:06:14;;;;;;;0.80;0.40;;;;;;;7.10;100.00;96193.19;5010679;28;20053;-76
2021/03/11 05:09:17;;;;;;;0.15;0.15;;;;;;;7.04;100.00;96200.84;5010479;28;20081;-76
2021/03/11 05:12:20;;;;;;;0.30;0.30;;;;;;;7.02;100.00;96214.50;5009720;28;21049;-78
2021/03/11 05:15:24;;;;;;;0.15;0.15;;;;;;;7.02;100.00;96214.50;5010441;28;20061;-77
2021/03/11 05:18:28;;;;;;;3.13;0.45;;;;;;;7.00;100.00;96192.16;5010359;28;20056;-77
2021/03/11 05:21:33;;;;;;;0.45;0.45;;;;;;;7.02;100.00;96216.53;4990182;28;20077;-77
2021/03/11 05:24:36;;;;;;;0.85;0.40;;;;;;;6.99;100.00;96201.75;4990676;28;20070;-77
2021/03/11 05:27:40;;;;;;;4.90;1.48;;;;;;;7.02;100.00;96211.72;4990808;28;20061;-76
2021/03/11 05:30:44;;;;;;;0.32;0.32;;;;;;;7.05;100.00;96204.38;4998341;28;20404;-77
2021/03/11 05:33:47;;;;;;;2.10;0.70;;;;;;;7.07;100.00;96208.09;4989796;28;20057;-77
2021/03/11 05:36:51;;;;;;;2.85;0.63;;;;;;;7.10;100.00;96207.00;4996335;28;20057;-77
2021/03/11 05:39:54;;;;;;;2.60;0.55;;;;;;;7.13;100.00;96222.53;5010236;28;20530;-77
2021/03/11 05:42:59;;;;;;;8.98;0.50;;;;;;;7.16;100.00;96238.06;5009935;28;20061;-77
2021/03/11 05:46:04;;;;;;;2.42;0.60;;;;;;;7.19;100.00;96245.25;5009153;28;20069;-77
2021/03/11 05:49:08;;;;;;;0.50;0.20;;;;;;;7.16;100.00;96243.59;5010335;28;20061;-78
2021/03/11 05:52:13;;;;;;;1.67;0.45;;;;;;;7.17;100.00;96264.41;5008614;28;20526;-77
2021/03/11 05:55:17;;;;;;;0.55;0.55;;;;;;;7.14;100.00;96276.59;5010269;28;20080;-80
2021/03/11 05:58:21;;;;;;;9.00;1.13;;;;;;;7.13;100.00;96275.09;5009017;28;20081;-79
2021/03/11 06:01:25;;;;;;;19.48;1.70;;;;;;;7.09;100.00;96299.59;5010082;28;20065;-80
2021/03/11 06:04:29;;;;;;;8.40;0.60;;;;;;;7.06;100.00;96324.81;5009727;28;20125;-79
2021/03/11 06:07:34;;;;;;;1.40;0.57;;;;;;;7.02;100.00;96316.84;5009866;28;20064;-79
2021/03/11 06:10:39;;;;;;;3.50;0.28;;;;;;;6.99;100.00;96317.94;5011457;28;20072;-80
2021/03/11 06:13:44;;;;;;;0.65;0.52;;;;;;;6.98;100.00;96327.50;5013567;28;20069;-81
2021/03/11 06:16:59;;;;;;;0.30;0.20;;;;;;;6.95;100.00;96353.47;5013618;28;20061;-80
2021/03/11 06:20:03;;;;;;;1.05;0.47;;;;;;;6.95;100.00;96352.72;5013355;28;20069;-80
2021/03/11 06:23:06;;;;;;;4.20;1.20;;;;;;;6.95;100.00;96381.13;5012941;28;20069;-78
2021/03/11 06:26:11;;;;;;;1.05;0.77;;;;;;;6.94;100.00;96421.13;5013436;28;20065;-79
2021/03/11 06:29:23;;;;;;;14.70;1.40;;;;;;;6.96;100.00;96434.41;5013573;28;20065;-78
2021/03/11 06:32:27;;;;;;;1.08;0.20;;;;;;;6.91;100.00;96482.31;5012415;28;20056;-78
2021/03/11 06:35:31;;;;;;;11.45;1.92;;;;;;;6.81;100.00;96495.81;5012925;28;20065;-78
2021/03/11 06:38:35;;;;;;;5.75;1.90;;;;;;;6.71;100.00;96514.09;5013194;28;20065;-77
2021/03/11 06:41:43;;;;;;;5.95;1.00;;;;;;;6.55;100.00;96496.53;5012996;28;20061;-78
2021/03/11 06:44:47;;;;;;;5.07;1.52;;;;;;;6.46;100.00;96541.16;5012885;28;20411;-78
2021/03/11 06:47:51;;;;;;;0.28;0.22;;;;;;;6.38;100.00;96559.66;5012908;28;20550;-78
2021/03/11 06:50:56;;;;;;;1.85;0.40;;;;;;;6.30;100.00;96571.84;5012860;28;20061;-78
2021/03/11 06:54:01;;;;;;;8.23;0.98;;;;;;;6.23;100.00;96592.56;5012789;28;20061;-78
2021/03/11 06:57:04;;;;;;;0.93;0.38;;;;;;;6.17;100.00;96621.53;5012451;28;20069;-79
2021/03/11 07:00:18;;;;;;;2.45;0.80;;;;;;;6.13;100.00;96639.16;5012503;28;20069;-79
2021/03/11 07:03:36;;;;;;;0.20;0.20;;;;;;;6.10;100.00;96634.69;5013058;28;20080;-80
2021/03/11 07:06:40;;;;;;;1.13;0.95;;;;;;;6.06;100.00;96677.69;5012051;28;20069;-80
2021/03/11 07:09:43;;;;;;;1.55;0.93;;;;;;;6.02;100.00;96700.06;5011387;28;20056;-79
2021/03/11 07:12:58;;;;;;;0.22;0.22;;;;;;;6.04;100.00;96741.00;5012031;28;20064;-80
2021/03/11 07:16:10;;;;;;;0.65;0.55;;;;;;;5.99;100.00;96734.25;5013386;28;20057;-80
2021/03/11 07:19:16;;;;;;;0.32;0.32;;;;;;;5.98;100.00;96763.13;5012452;28;20068;-80
2021/03/11 07:22:20;;;;;;;0.35;0.35;;;;;;;5.96;100.00;96789.78;5010940;28;20057;-80
2021/03/11 07:25:43;;;;;;;2.20;0.75;;;;;;;5.96;100.00;96807.09;5011506;28;20061;-80
2021/03/11 07:28:47;;;;;;;2.45;1.55;;;;;;;5.96;100.00;96822.91;5011737;28;20057;-80
2021/03/11 07:32:01;;;;;;;0.20;0.20;;;;;;;5.92;100.00;96842.53;5011616;28;20420;-82
2021/03/11 07:35:05;;;;;;;0.30;0.30;;;;;;;5.91;100.00;96870.69;5010601;28;20057;-82
2021/03/11 07:38:12;;;;;;;0.30;0.30;;;;;;;5.86;100.00;96893.56;5011398;28;20069;-82
2021/03/11 07:41:17;;;;;;;0.85;0.52;;;;;;;5.83;100.00;96914.66;5011820;28;20072;-80
2021/03/11 07:44:22;;;;;;;0.75;0.75;;;;;;;5.78;100.00;96931.28;5011094;28;20076;-80
2021/03/11 07:47:26;;;;;;;3.95;0.30;;;;;;;5.72;100.00;96942.34;5012394;28;20073;-80
2021/03/11 07:50:30;;;;;;;0.32;0.32;;;;;;;5.69;100.00;96959.94;5010159;28;20056;-80
2021/03/11 07:53:33;;;;;;;0.52;0.52;;;;;;;5.72;100.00;96985.75;5011628;28;20065;-79
2021/03/11 07:56:38;;;;;;;0.30;0.30;;;;;;;5.73;100.00;97021.16;5011451;28;20065;-79
2021/03/11 07:59:44;;;;;;;0.20;0.20;;;;;;;5.74;100.00;97017.13;5011883;28;20069;-80
2021/03/11 08:02:59;;;;;;;0.22;0.22;;;;;;;5.75;100.00;97024.16;5012315;28;20061;-79
2021/03/11 08:06:24;;;;;;;6.95;1.60;;;;;;;5.73;100.00;97057.06;5011444;28;20424;-79
2021/03/11 08:09:37;;;;;;;0.50;0.50;;;;;;;5.72;100.00;97074.88;5010496;28;20065;-80
2021/03/11 08:12:42;;;;;;;0.38;0.35;;;;;;;5.70;100.00;97084.91;5011342;28;20611;-80
2021/03/11 08:15:45;;;;;;;7.85;1.27;;;;;;;5.68;100.00;97084.66;5011918;28;20069;-80
2021/03/11 08:18:51;;;;;;;0.82;0.57;;;;;;;5.71;100.00;97095.47;5011414;28;20061;-80
2021/03/11 08:21:54;;;;;;;1.70;0.43;;;;;;;5.72;100.00;97102.47;4991634;28;20060;-81
2021/03/11 08:24:58;;;;;;;4.40;0.17;;;;;;;5.78;100.00;97124.56;4990889;28;20069;-80
2021/03/11 08:28:03;;;;;;;0.50;0.50;;;;;;;5.83;100.00;97127.28;4991334;28;20057;-79
2021/03/11 08:31:08;;;;;;;0.25;0.20;;;;;;;5.90;100.00;97137.06;4991838;28;20068;-78
2021/03/11 08:34:37;;;;;;;0.20;0.20;;;;;;;5.96;100.00;97149.59;4990705;28;20535;-79
2021/03/11 08:37:41;;;;;;;0.95;0.65;;;;;;;6.01;100.00;97154.34;4990063;28;20420;-80
2021/03/11 08:41:08;;;;;;;4.57;1.65;;;;;;;6.09;100.00;97166.34;4991305;28;20089;-79
2021/03/11 08:44:12;;;;;;;1.65;0.43;;;;;;;6.13;100.00;97164.06;4991220;28;20065;-80
2021/03/11 08:47:15;;;;;;;3.72;1.15;;;;;;;6.12;100.00;97167.34;4991630;28;20057;-79
2021/03/11 08:50:34;;;;;;;8.05;0.40;;;;;;;6.02;100.00;97155.81;4989830;28;20065;-79
2021/03/11 08:53:38;;;;;;;7.47;1.33;;;;;;;5.94;100.00;97168.69;4991364;28;20094;-77
2021/03/11 08:56:43;;;;;;;9.40;1.13;;;;;;;5.88;100.00;97169.97;4991084;28;20077;-78
2021/03/11 08:59:47;;;;;;;5.05;2.47;;;;;;;6.03;100.00;97170.38;4991232;28;20065;-79
2021/03/11 09:02:51;;;;;;;3.40;0.45;;;;;;;6.13;100.00;97169.56;4991299;28;20416;-79
2021/03/11 09:05:54;;;;;;;2.20;0.52;;;;;;;6.31;100.00;97167.47;4990332;28;20073;-79
2021/03/11 09:08:58;;;;;;;0.38;0.38;;;;;;;6.47;100.00;97175.66;4992336;28;20060;-79
2021/03/11 09:12:10;;;;;;;0.80;0.45;;;;;;;6.52;100.00;97177.63;5007985;28;20530;-78
2021/03/11 09:15:13;;;;;;;0.50;0.50;;;;;;;6.71;100.00;97180.53;5007975;28;20057;-77
2021/03/11 09:18:17;;;;;;;0.73;0.30;;;;;;;6.88;100.00;97186.69;5010523;28;20061;-77
2021/03/11 09:21:20;;;;;;;3.40;0.63;;;;;;;6.94;100.00;97181.09;5008600;28;20065;-78
2021/03/11 09:24:27;;;;;;;1.85;0.93;;;;;;;6.85;100.00;97193.22;5009755;28;20076;-79
2021/03/11 09:27:33;;;;;;;0.20;0.20;;;;;;;6.88;100.00;97211.56;5010259;28;20056;-79
2021/03/11 09:30:38;;;;;;;0.75;0.47;;;;;;;6.83;100.00;97196.50;5009949;28;20514;-78
2021/03/11 09:33:41;;;;;;;3.55;0.68;;;;;;;6.87;100.00;97182.38;5009071;28;20065;-78
2021/03/11 09:36:48;;;;;;;0.52;0.30;;;;;;;6.92;100.00;97180.84;5010014;28;20061;-78
2021/03/11 09:40:00;;;;;;;2.05;0.57;;;;;;;6.89;100.00;97186.16;5009921;28;20061;-78
2021/03/11 09:43:05;;;;;;;2.58;0.35;;;;;;;6.95;100.00;97190.91;5010106;28;20638;-78
2021/03/11 09:46:11;;;;;;;0.93;0.43;;;;;;;6.97;100.00;97180.81;5013138;28;20423;-78
2021/03/11 09:49:21;;;;;;;3.40;0.95;;;;;;;7.10;100.00;97199.56;5014329;28;20065;-78
2021/03/11 09:52:24;;;;;;;0.85;0.50;;;;;;;7.16;100.00;97195.50;5013031;28;20061;-78
2021/03/11 09:55:29;;;;;;;0.75;0.75;;;;;;;7.19;100.00;97205.50;5014114;28;20057;-78
2021/03/11 09:58:33;;;;;;;3.22;0.30;;;;;;;7.18;100.00;97203.25;5013986;28;20053;-78
2021/03/11 10:01:38;;;;;;;2.17;0.43;;;;;;;7.32;100.00;97210.44;5014284;28;20069;-78
2021/03/11 10:04:42;;;;;;;0.52;0.47;;;;;;;7.50;100.00;97218.06;5013339;28;20109;-78
2021/03/11 10:07:56;;;;;;;0.20;0.20;;;;;;;7.70;100.00;97236.22;5013535;28;20076;-79
2021/03/11 10:11:06;;;;;;;7.07;0.40;;;;;;;7.69;100.00;97240.28;5013096;28;20116;-78
2021/03/11 10:14:30;;;;;;;5.05;0.47;;;;;;;7.88;100.00;97235.53;5013776;28;20061;-78
2021/03/11 10:17:33;;;;;;;14.90;0.55;;;;;;;7.88;100.00;97247.38;5013548;28;20688;-78
2021/03/11 10:20:37;;;;;;;0.17;0.17;;;;;;;8.17;100.00;97254.09;5013675;28;20061;-78
2021/03/11 10:23:50;;;;;;;0.77;0.20;;;;;;;8.09;100.00;97255.94;5013863;28;20065;-78
2021/03/11 10:26:53;;;;;;;5.85;0.38;;;;;;;7.86;100.00;97288.69;5013345;28;20065;-77
2021/03/11 10:30:00;;;;;;;0.73;0.22;;;;;;;7.41;100.00;97296.66;5013209;28;20065;-76
2021/03/11 10:33:05;;;;;;;0.95;0.28;;;;;;;7.08;100.00;97299.69;5013634;28;20428;-77
2021/03/11 10:36:18;;;;;;;15.45;1.58;;;;;;;7.24;100.00;97307.13;5013029;28;20523;-76
2021/03/11 10:39:23;;;;;;;4.68;0.73;;;;;;;7.42;100.00;97308.50;5012639;28;20065;-77
2021/03/11 10:42:42;;;;;;;2.83;1.33;;;;;;;7.52;100.00;97315.97;5013068;28;20053;-78
2021/03/11 10:45:47;;;;;;;0.70;0.17;;;;;;;7.91;100.00;97309.28;5013310;28;20068;-78
2021/03/11 10:48:52;;;;;;;7.28;0.90;;;;;;;8.20;100.00;97322.34;5012819;28;20056;-78
2021/03/11 10:51:59;;;;;;;0.10;0.10;;;;;;;8.27;100.00;97332.91;5012496;28;20069;-78
2021/03/11 10:55:22;;;;;;;3.75;0.38;;;;;;;8.27;100.00;97335.66;5012758;28;20530;-77
2021/03/11 10:58:27;;;;;;;0.52;0.43;;;;;;;8.17;100.00;97326.16;5012156;28;20065;-77
2021/03/11 11:01:31;;;;;;;2.50;0.43;;;;;;;8.06;100.00;97334.59;5012432;28;20091;-77
2021/03/11 11:04:34;;;;;;;0.98;0.40;;;;;;;8.46;100.00;97335.69;5011546;28;20064;-77
2021/03/11 11:07:41;;;;;;;3.83;0.40;;;;;;;8.44;100.00;97339.00;5012042;28;20423;-77
2021/03/11 11:10:45;;;;;;;0.47;0.20;;;;;;;8.77;100.00;97354.50;5010975;28;20156;-77
2021/03/11 11:13:50;;;;;;;5.78;0.35;;;;;;;8.97;100.00;97365.06;5011813;28;20065;-77
2021/03/11 11:16:54;;;;;;;0.20;0.10;;;;;;;8.93;100.00;97365.38;5011939;28;20065;-77
2021/03/11 11:19:57;;;;;;;0.65;0.40;;;;;;;8.76;100.00;97356.50;5011661;28;20139;-77
2021/03/11 11:23:01;;;;;;;0.10;0.10;;;;;;;8.81;100.00;97364.03;5011685;28;20048;-77
2021/03/11 11:26:05;;;;;;;1.17;0.20;;;;;;;8.71;100.00;97387.84;5011248;28;20065;-77
2021/03/11 11:29:09;;;;;;;3.42;0.30;;;;;;;8.40;100.00;97380.16;5011349;28;20428;-76
2021/03/11 11:32:12;;;;;;;0.30;0.30;;;;;;;8.20;100.00;97402.75;5012091;28;20061;-76
2021/03/11 11:35:16;;;;;;;0.40;0.20;;;;;;;8.03;100.00;97402.16;5011095;28;20065;-76
2021/03/11 11:38:20;;;;;;;3.15;0.60;;;;;;;7.98;100.00;97394.63;5010431;28;20538;-76
2021/03/11 11:41:24;;;;;;;0.28;0.28;;;;;;;7.94;100.00;97414.31;5010961;28;20065;-75
2021/03/11 11:44:27;;;;;;;3.45;0.30;;;;;;;8.02;100.00;97423.56;5010541;28;20064;-76
2021/03/11 11:47:31;;;;;;;2.88;0.40;;;;;;;8.04;100.00;97423.03;5011659;28;20420;-76
2021/03/11 11:50:35;;;;;;;2.83;0.75;;;;;;;7.89;100.00;97442.06;5011065;28;20060;-76
2021/03/11 11:53:39;;;;;;;4.15;0.30;;;;;;;7.97;100.00;97454.13;5010931;28;20076;-76
2021/03/11 11:56:42;;;;;;;0.30;0.30;;;;;;;8.24;100.00;97466.97;5010964;28;20065;-76
2021/03/11 11:59:45;;;;;;;0.10;0.10;;;;;;;8.60;100.00;97470.47;5010743;28;20061;-76
2021/03/11 12:02:49;;;;;;;0.95;0.10;;;;;;;8.52;100.00;97475.81;5006058;28;20057;-76
2021/03/11 12:05:53;;;;;;;0.10;0.10;;;;;;;8.74;100.00;97483.16;5000714;28;20069;-77
2021/03/11 12:08:57;;;;;;;0.10;0.10;;;;;;;8.93;100.00;97492.28;5000885;28;20053;-77
2021/03/11 12:12:02;;;;;;;0.10;0.10;;;;;;;8.59;100.00;97464.16;4991237;28;20057;-77
2021/03/11 12:15:06;;;;;;;1.05;0.57;;;;;;;8.30;100.00;97478.78;5001295;28;20049;-78
2021/03/11 12:18:10;;;;;;;0.68;0.35;;;;;;;7.92;100.00;97493.69;5000393;28;20048;-78
2021/03/11 12:21:14;;;;;;;0.50;0.20;;;;;;;7.82;100.00;97517.47;4999255;28;20057;-78
2021/03/11 12:24:18;;;;;;;0.10;0.10;;;;;;;7.70;100.00;97502.91;5000701;28;20062;-78
2021/03/11 12:27:24;;;;;;;0.20;0.20;;;;;;;7.42;100.00;97522.47;5000409;28;20061;-78
2021/03/11 12:30:28;;;;;;;0.10;0.10;;;;;;;7.32;100.00;97501.84;5006490;28;20064;-77
2021/03/11 12:33:32;;;;;;;0.10;0.10;;;;;;;7.36;100.00;97510.63;5000826;28;20045;-76
2021/03/11 12:36:36;;;;;;;0.70;0.32;;;;;;;7.52;100.00;97493.19;5009970;28;20514;-78
2021/03/11 12:39:40;;;;;;;0.20;0.20;;;;;;;7.82;100.00;97509.16;5010518;28;20514;-79
2021/03/11 12:42:47;;;;;;;0.73;0.17;;;;;;;8.03;100.00;97513.03;5009706;28;20530;-79
2021/03/11 12:45:52;;;;;;;0.20;0.20;;;;;;;8.32;100.00;97518.59;5010468;28;20077;-77
2021/03/11 12:48:55;;;;;;;0.50;0.50;;;;;;;8.53;100.00;97516.16;5009999;28;20069;-79
2021/03/11 12:51:59;;;;;;;5.93;0.52;;;;;;;8.66;100.00;97516.28;5009976;28;20122;-78
2021/03/11 12:55:02;;;;;;;1.45;0.40;;;;;;;8.60;100.00;97507.25;5009731;28;20061;-79
2021/03/11 12:58:05;;;;;;;0.15;0.15;;;;;;;8.59;100.00;97508.53;5009642;28;20424;-79
2021/03/11 13:01:09;;;;;;;0.55;0.55;;;;;;;8.44;100.00;97513.72;5010168;28;20057;-78
2021/03/11 13:04:12;;;;;;;0.52;0.50;;;;;;;8.25;100.00;97518.41;5008280;28;20065;-78
2021/03/11 13:07:16;;;;;;;0.55;0.43;;;;;;;8.10;100.00;97527.06;5009321;28;20061;-77
2021/03/11 13:10:19;;;;;;;0.80;0.25;;;;;;;8.07;100.00;97543.97;5009242;28;20061;-78
2021/03/11 13:13:23;;;;;;;0.60;0.22;;;;;;;8.23;100.00;97548.63;5009736;28;20065;-77
2021/03/11 13:16:27;;;;;;;5.00;0.35;;;;;;;8.16;100.00;97532.59;5010492;28;20057;-77
2021/03/11 13:19:30;;;;;;;0.32;0.22;;;;;;;8.12;100.00;97534.88;5009437;28;20072;-77
2021/03/11 13:22:34;;;;;;;0.43;0.20;;;;;;;8.14;100.00;97533.06;5009764;28;20535;-77
2021/03/11 13:25:41;;;;;;;0.10;0.03;;;;;;;8.53;100.00;97527.25;5009507;28;20081;-77
2021/03/11 13:28:45;;;;;;;1.15;0.25;;;;;;;8.73;100.00;97524.03;5009602;28;20411;-77
2021/03/11 13:31:49;;;;;;;1.02;0.57;;;;;;;8.84;100.00;97523.16;5009660;28;20061;-77
2021/03/11 13:34:54;;;;;;;2.85;0.32;;;;;;;8.90;100.00;97538.47;5008989;28;20057;-77
2021/03/11 13:37:58;;;;;;;2.40;0.20;;;;;;;8.75;100.00;97542.94;5009493;28;20519;-78
2021/03/11 13:41:01;;;;;;;0.50;0.20;;;;;;;8.65;100.00;97545.31;5009198;28;20065;-76
2021/03/11 13:44:06;;;;;;;0.25;0.20;;;;;;;8.69;100.00;97554.09;5008758;28;20065;-77
2021/03/11 13:47:09;;;;;;;0.20;0.20;;;;;;;8.81;100.00;97558.28;5009612;28;20069;-76
2021/03/11 13:50:14;;;;;;;1.77;0.30;;;;;;;8.53;100.00;97562.56;5009384;28;20080;-75
2021/03/11 13:53:18;;;;;;;1.20;0.57;;;;;;;8.31;100.00;97567.03;5008794;28;20061;-76
2021/03/11 13:56:22;;;;;;;1.25;0.88;;;;;;;8.28;100.00;97556.19;5009055;28;20133;-76
2021/03/11 13:59:25;;;;;;;0.43;0.20;;;;;;;8.45;100.00;97561.59;5009339;28;20057;-76
2021/03/11 14:02:29;;;;;;;2.15;0.50;;;;;;;8.80;100.00;97545.66;5009855;28;20061;-76
2021/03/11 14:05:32;;;;;;;1.70;0.68;;;;;;;9.01;100.00;97543.16;4989684;28;20593;-76
2021/03/11 14:08:36;;;;;;;6.80;0.88;;;;;;;8.97;100.00;97557.34;4989421;28;20065;-76
2021/03/11 14:11:42;;;;;;;5.40;0.95;;;;;;;8.72;100.00;97555.84;4989294;28;20065;-77
2021/03/11 14:14:47;;;;;;;7.85;1.70;;;;;;;8.54;100.00;97562.03;4989050;28;20073;-77
2021/03/11 14:17:50;;;;;;;2.40;1.02;;;;;;;8.59;100.00;97569.56;4989953;28;20432;-77
2021/03/11 14:20:54;;;;;;;0.73;0.45;;;;;;;8.65;100.00;97556.41;4988711;28;20066;-76
2021/03/11 14:23:57;;;;;;;5.07;0.95;;;;;;;8.43;100.00;97567.69;4989483;28;20527;-76
2021/03/11 14:27:01;;;;;;;0.57;0.30;;;;;;;8.21;100.00;97571.34;4988186;28;20069;-76
2021/03/11 14:30:05;;;;;;;10.77;1.25;;;;;;;8.04;100.00;97581.03;4989749;28;20073;-76
2021/03/11 14:33:08;;;;;;;3.90;0.63;;;;;;;8.01;100.00;97584.84;4993644;28;20399;-77
2021/03/11 14:36:12;;;;;;;1.70;1.45;;;;;;;7.97;100.00;97574.00;4992548;28;20073;-76
2021/03/11 14:39:16;;;;;;;8.82;1.10;;;;;;;8.07;100.00;97580.78;4992355;28;20064;-77
2021/03/11 14:42:20;;;;;;;0.30;0.20;;;;;;;8.06;100.00;97584.03;4992057;28;20839;-76
2021/03/11 14:45:23;;;;;;;0.73;0.70;;;;;;;8.09;100.00;97589.31;4993508;28;20428;-77
2021/03/11 14:48:28;;;;;;;0.98;0.60;;;;;;;8.12;100.00;97588.28;4992253;28;20427;-76